Ext Vista Bella, Puerto Rico
Current Conditions -  °F | °C
As of 6:56 PM on Thursday 20 Nov 2014 (Local Time) from TJSJ Reporting Station
Few Clouds Few Clouds  
Wind Chill: 82°   Ceiling: Unl
Heat Index: 86°   Visibility: 10mi
Dew Point: 71°   Wind: 8mph
Humidity: 69%   Direction: 100°E
Pressure: 29.99"   Gusts: NA
Location:  18.1892°N, 66.1134°W
Report Text: TJSJ 202256Z 10007KT 10SM FEW038 28/22 A2999 RMK AO2 SLP153 T02780217
Loading
Personal Weather Stations






























Interactive Weather Map New forecast layout! Learn more

10-Day Weather Forecast

Advertisements
Track Severe Weather on mobile